createdAt,value
2024-05-09T00:01:37.824Z,10.63
2024-05-09T00:03:41.642Z,10.99
2024-05-09T00:05:44.792Z,10.57
2024-05-09T00:07:47.340Z,10.94
2024-05-09T00:09:49.689Z,11.11
2024-05-09T00:11:52.254Z,10.95
2024-05-09T00:13:54.706Z,10.24
2024-05-09T00:15:57.234Z,10.70
2024-05-09T00:17:59.741Z,10.47
2024-05-09T00:20:03.237Z,10.77
2024-05-09T00:22:07.863Z,10.44
2024-05-09T00:24:10.506Z,10.40
2024-05-09T00:26:17.746Z,10.66
2024-05-09T00:28:20.180Z,10.31
2024-05-09T00:30:31.579Z,10.51
2024-05-09T00:32:37.633Z,10.15
2024-05-09T00:34:40.050Z,10.46
2024-05-09T00:36:42.510Z,10.89
2024-05-09T00:38:47.827Z,10.48
2024-05-09T00:40:50.186Z,9.96
2024-05-09T00:42:52.437Z,9.83
2024-05-09T00:44:55.001Z,10.26
2024-05-09T00:46:57.921Z,10.14
2024-05-09T00:49:01.369Z,10.26
2024-05-09T00:51:05.635Z,9.79
2024-05-09T00:53:11.480Z,9.99
2024-05-09T00:55:16.570Z,10.01
2024-05-09T00:57:18.948Z,9.99
2024-05-09T00:59:24.401Z,9.92
2024-05-09T01:01:27.228Z,10.20
2024-05-09T01:03:29.922Z,10.02
2024-05-09T01:05:32.785Z,9.96
2024-05-09T01:07:35.189Z,9.89
2024-05-09T01:09:37.605Z,9.95
2024-05-09T01:11:41.308Z,10.03
2024-05-09T01:13:45.282Z,9.96
2024-05-09T01:15:50.399Z,9.90
2024-05-09T01:17:55.952Z,10.34
2024-05-09T01:19:58.726Z,9.59
2024-05-09T01:22:01.373Z,9.24
2024-05-09T01:24:03.909Z,9.62
2024-05-09T01:26:06.520Z,9.39
2024-05-09T01:28:08.969Z,9.74
2024-05-09T01:30:17.227Z,9.64
2024-05-09T01:32:23.800Z,9.63
2024-05-09T01:34:27.151Z,9.60
2024-05-09T01:36:30.038Z,9.22
2024-05-09T01:38:32.434Z,9.35
2024-05-09T01:40:38.937Z,9.21
2024-05-09T01:42:42.898Z,9.57
2024-05-09T01:44:45.345Z,9.34
2024-05-09T01:46:47.691Z,9.07
2024-05-09T01:48:50.420Z,9.14
2024-05-09T01:50:53.035Z,8.92
2024-05-09T01:52:55.515Z,9.28
2024-05-09T01:54:57.909Z,9.46
2024-05-09T01:57:00.218Z,9.17
2024-05-09T01:59:02.640Z,9.28
2024-05-09T02:01:05.311Z,9.06
2024-05-09T02:03:15.557Z,8.59
2024-05-09T02:05:20.450Z,8.79
2024-05-09T02:07:22.837Z,8.81
2024-05-09T02:09:26.189Z,8.50
2024-05-09T02:11:28.599Z,8.49
2024-05-09T02:13:31.116Z,9.29
2024-05-09T02:15:33.718Z,8.52
2024-05-09T02:17:36.093Z,8.85
2024-05-09T02:19:38.738Z,8.44
2024-05-09T02:21:41.193Z,8.39
2024-05-09T02:23:43.481Z,8.44
2024-05-09T02:25:45.901Z,8.30
2024-05-09T02:27:48.361Z,8.38
2024-05-09T02:29:50.956Z,8.12
2024-05-09T02:31:53.457Z,7.99
2024-05-09T02:33:56.610Z,8.63
2024-05-09T02:35:59.150Z,7.61
2024-05-09T02:38:01.833Z,7.96
2024-05-09T02:40:07.120Z,8.34
2024-05-09T02:42:11.722Z,7.98
2024-05-09T02:44:14.120Z,8.00
2024-05-09T02:46:16.552Z,8.06
2024-05-09T02:48:19.221Z,7.99
2024-05-09T02:50:29.876Z,8.09
2024-05-09T02:52:39.686Z,7.66
2024-05-09T02:54:42.183Z,8.14
2024-05-09T02:56:44.593Z,7.81
2024-05-09T02:58:47.421Z,7.76
2024-05-09T03:00:49.965Z,8.01
2024-05-09T03:02:53.224Z,7.16
2024-05-09T03:04:56.125Z,7.15
2024-05-09T03:06:58.933Z,7.66
2024-05-09T03:09:01.349Z,7.71
2024-05-09T03:11:03.989Z,7.21
2024-05-09T03:13:08.458Z,7.66
2024-05-09T03:15:11.087Z,7.30
2024-05-09T03:17:13.613Z,7.23
2024-05-09T03:19:16.406Z,7.82
2024-05-09T03:21:19.030Z,7.89
2024-05-09T03:23:22.012Z,7.98
2024-05-09T03:25:24.477Z,7.20
2024-05-09T03:27:27.047Z,7.24
2024-05-09T03:29:29.886Z,7.02
2024-05-09T03:31:32.349Z,7.45
2024-05-09T03:33:35.574Z,7.50
2024-05-09T03:35:38.734Z,7.42
2024-05-09T03:37:41.128Z,7.50
2024-05-09T03:39:43.831Z,7.18
2024-05-09T03:41:46.256Z,7.50
2024-05-09T03:43:49.534Z,7.60
2024-05-09T03:45:52.115Z,7.41
2024-05-09T03:47:54.705Z,6.96
2024-05-09T03:49:57.818Z,7.33
2024-05-09T03:52:05.536Z,7.36
2024-05-09T03:54:08.075Z,7.35
2024-05-09T03:56:10.688Z,7.86
2024-05-09T03:58:14.796Z,7.34
2024-05-09T04:00:22.630Z,7.71
2024-05-09T04:02:33.924Z,7.70
2024-05-09T04:04:36.840Z,7.27
2024-05-09T04:06:40.149Z,7.66
2024-05-09T04:08:42.960Z,7.88
2024-05-09T04:10:46.295Z,7.35
2024-05-09T04:12:48.975Z,7.37
2024-05-09T04:14:51.824Z,7.73
2024-05-09T04:16:54.473Z,7.42
2024-05-09T04:18:57.054Z,8.04
2024-05-09T04:21:00.223Z,8.13
2024-05-09T04:23:02.950Z,7.93
2024-05-09T04:25:05.927Z,8.42
2024-05-09T04:27:08.617Z,8.13
2024-05-09T04:29:11.348Z,8.03
2024-05-09T04:31:13.870Z,8.38
2024-05-09T04:33:16.520Z,8.27
2024-05-09T04:35:22.853Z,8.22
2024-05-09T04:37:26.037Z,8.59
2024-05-09T04:39:28.741Z,8.72
2024-05-09T04:41:31.479Z,8.60
2024-05-09T04:43:35.572Z,9.59
2024-05-09T04:45:37.947Z,9.75
2024-05-09T04:47:40.808Z,9.67
2024-05-09T04:49:46.080Z,9.95
2024-05-09T04:51:48.525Z,9.94
2024-05-09T04:53:51.235Z,9.57
2024-05-09T04:55:54.019Z,10.02
2024-05-09T04:57:56.465Z,10.55
2024-05-09T04:59:59.208Z,10.33
2024-05-09T05:02:02.430Z,10.16
2024-05-09T05:04:05.447Z,10.04
2024-05-09T05:06:08.468Z,10.73
2024-05-09T05:08:16.880Z,10.93
2024-05-09T05:10:25.530Z,10.73
2024-05-09T05:12:50.991Z,10.82
2024-05-09T05:14:53.481Z,11.27
2024-05-09T05:16:56.035Z,11.23
2024-05-09T05:18:58.493Z,11.53
2024-05-09T05:21:01.330Z,11.93
2024-05-09T05:23:04.148Z,12.18
2024-05-09T05:25:07.290Z,12.04
2024-05-09T05:27:09.700Z,12.59
2024-05-09T05:29:12.094Z,12.20
2024-05-09T05:31:17.412Z,12.13
2024-05-09T05:33:20.452Z,12.85
2024-05-09T05:35:23.401Z,12.86
2024-05-09T05:37:25.806Z,12.91
2024-05-09T05:39:28.701Z,13.55
2024-05-09T05:41:31.270Z,13.20
2024-05-09T05:43:34.338Z,13.45
2024-05-09T05:45:37.369Z,14.00
2024-05-09T05:47:40.259Z,14.02
2024-05-09T05:49:42.798Z,14.24
2024-05-09T05:51:45.471Z,14.65
2024-05-09T05:53:47.923Z,14.71
2024-05-09T05:55:50.513Z,15.08
2024-05-09T05:57:52.812Z,14.85
2024-05-09T05:59:55.252Z,14.65
2024-05-09T06:01:57.764Z,14.77
2024-05-09T06:04:00.148Z,15.22
2024-05-09T06:06:03.876Z,15.72
2024-05-09T06:08:07.127Z,15.33
2024-05-09T06:10:17.267Z,15.25
2024-05-09T06:12:24.148Z,15.41
2024-05-09T06:14:26.818Z,16.05
2024-05-09T06:16:29.357Z,15.52
2024-05-09T06:18:32.374Z,16.17
2024-05-09T06:20:37.504Z,16.14
2024-05-09T06:22:40.951Z,16.09
2024-05-09T06:24:43.645Z,16.52
2024-05-09T06:26:46.782Z,16.79
2024-05-09T06:28:49.067Z,16.77
2024-05-09T06:30:51.429Z,17.27
2024-05-09T06:32:53.766Z,16.94
2024-05-09T06:34:56.153Z,17.54
2024-05-09T06:36:58.603Z,17.76
2024-05-09T06:39:01.321Z,17.72
2024-05-09T06:41:06.217Z,18.08
2024-05-09T06:43:16.902Z,18.05
2024-05-09T06:45:21.451Z,17.92
2024-05-09T06:47:23.750Z,18.57
2024-05-09T06:49:29.422Z,18.42
2024-05-09T06:51:32.054Z,18.85
2024-05-09T06:53:34.964Z,18.76
2024-05-09T06:55:37.992Z,18.55
2024-05-09T06:57:43.020Z,19.03
2024-05-09T06:59:45.947Z,19.00
2024-05-09T07:01:48.251Z,19.09
2024-05-09T07:03:50.556Z,18.94
2024-05-09T07:05:52.974Z,19.67
2024-05-09T07:07:55.373Z,19.22
2024-05-09T07:09:57.746Z,19.57
2024-05-09T07:12:04.078Z,19.65
2024-05-09T07:14:07.184Z,19.89
2024-05-09T07:16:09.657Z,19.85
2024-05-09T07:18:14.085Z,19.55
2024-05-09T07:20:23.526Z,19.68
2024-05-09T07:22:34.529Z,19.75
2024-05-09T07:24:37.634Z,20.03
2024-05-09T07:26:39.897Z,20.01
2024-05-09T07:28:42.822Z,20.05
2024-05-09T07:30:46.035Z,20.00
2024-05-09T07:32:49.070Z,19.81
2024-05-09T07:34:52.026Z,19.96
2024-05-09T07:36:54.362Z,20.54
2024-05-09T07:38:56.754Z,20.98
2024-05-09T07:40:59.370Z,20.84
2024-05-09T07:43:04.042Z,21.01
2024-05-09T07:45:24.224Z,21.11
2024-05-09T07:48:57.269Z,20.99
2024-05-09T07:51:32.806Z,20.95
2024-05-09T07:53:29.924Z,21.35
2024-05-09T07:54:39.021Z,21.41
2024-05-09T07:56:42.173Z,21.59
2024-05-09T07:58:46.108Z,21.76
2024-05-09T08:00:48.549Z,21.66
2024-05-09T08:02:51.330Z,21.87
2024-05-09T08:04:53.800Z,21.80
2024-05-09T08:06:56.189Z,21.99
2024-05-09T08:09:03.095Z,22.08
2024-05-09T08:11:10.222Z,22.06
2024-05-09T08:13:12.897Z,22.23
2024-05-09T08:15:15.558Z,22.34
2024-05-09T08:17:18.105Z,22.40
2024-05-09T08:19:21.107Z,22.07
2024-05-09T08:21:23.462Z,22.36
2024-05-09T08:23:26.085Z,22.05
2024-05-09T08:25:28.794Z,21.90
2024-05-09T08:27:31.268Z,22.36
2024-05-09T08:29:33.902Z,22.55
2024-05-09T08:31:39.829Z,22.80
2024-05-09T08:33:47.738Z,22.76
2024-05-09T08:35:51.198Z,23.07
2024-05-09T08:37:53.907Z,23.14
2024-05-09T08:39:57.669Z,23.57
2024-05-09T08:42:02.850Z,23.42
2024-05-09T08:44:05.327Z,23.51
2024-05-09T08:46:09.516Z,23.51
2024-05-09T08:48:13.903Z,24.13
2024-05-09T08:50:28.923Z,23.57
2024-05-09T08:52:38.564Z,23.60
2024-05-09T08:54:40.973Z,23.91
2024-05-09T08:56:46.884Z,24.09
2024-05-09T08:58:52.259Z,23.78
2024-05-09T09:00:55.610Z,23.69
2024-05-09T09:03:00.434Z,23.94
2024-05-09T09:05:11.757Z,24.40
2024-05-09T09:07:15.369Z,24.32
2024-05-09T09:09:18.347Z,24.53
2024-05-09T09:11:20.844Z,24.41
2024-05-09T09:13:23.551Z,24.44
2024-05-09T09:15:25.830Z,24.84
2024-05-09T09:17:28.238Z,24.88
2024-05-09T09:19:30.709Z,24.84
2024-05-09T09:21:33.147Z,25.16
2024-05-09T09:23:35.970Z,25.13
2024-05-09T09:25:41.198Z,25.42
2024-05-09T09:27:43.825Z,25.38
2024-05-09T09:29:46.347Z,24.82
2024-05-09T09:32:01.904Z,24.96
2024-05-09T09:34:08.927Z,24.59
2024-05-09T09:36:14.808Z,24.90
2024-05-09T09:38:23.240Z,24.69
2024-05-09T09:40:32.299Z,24.76
2024-05-09T09:42:38.559Z,25.30
2024-05-09T09:44:47.827Z,25.38
2024-05-09T09:46:58.643Z,24.99
2024-05-09T09:49:01.769Z,25.31
2024-05-09T09:51:05.755Z,25.07
2024-05-09T09:53:08.415Z,25.59
2024-05-09T09:55:11.870Z,25.55
2024-05-09T09:57:14.650Z,25.52
2024-05-09T09:59:17.411Z,25.51
2024-05-09T10:01:19.896Z,25.65
2024-05-09T10:03:22.834Z,25.63
2024-05-09T10:05:25.775Z,25.52
2024-05-09T10:07:30.078Z,25.90
2024-05-09T10:09:32.962Z,25.94
2024-05-09T10:11:42.038Z,25.83
2024-05-09T10:13:48.176Z,26.00
2024-05-09T10:15:54.676Z,25.55
2024-05-09T10:18:07.439Z,26.17
2024-05-09T10:20:18.291Z,25.97
2024-05-09T10:22:31.281Z,26.05
2024-05-09T10:24:51.233Z,25.98
2024-05-09T10:26:56.678Z,25.96
2024-05-09T10:28:59.416Z,25.88
2024-05-09T10:31:13.559Z,26.07
2024-05-09T10:33:20.635Z,26.89
2024-05-09T10:35:25.576Z,26.87
2024-05-09T10:37:31.806Z,27.11
2024-05-09T10:39:39.286Z,27.11
2024-05-09T10:41:41.836Z,26.94
2024-05-09T10:43:45.487Z,27.17
2024-05-09T10:45:49.710Z,27.10
2024-05-09T10:47:52.855Z,27.11
2024-05-09T10:49:57.456Z,27.09
2024-05-09T10:52:00.230Z,27.36
2024-05-09T10:54:04.076Z,27.19
2024-05-09T10:56:06.888Z,27.52
2024-05-09T10:58:18.477Z,27.43
2024-05-09T11:00:27.606Z,27.56
2024-05-09T11:02:36.312Z,27.50
2024-05-09T11:04:45.430Z,27.26
2024-05-09T11:06:48.366Z,28.04
2024-05-09T11:08:51.881Z,27.58
2024-05-09T11:10:55.380Z,27.52
2024-05-09T11:12:58.268Z,27.43
2024-05-09T11:15:01.288Z,27.59
2024-05-09T11:17:06.766Z,27.35
2024-05-09T11:19:14.535Z,27.52
2024-05-09T11:21:17.545Z,27.51
2024-05-09T11:23:22.336Z,27.58
2024-05-09T11:25:24.889Z,27.69
2024-05-09T11:27:27.281Z,27.78
2024-05-09T11:29:40.169Z,27.94
2024-05-09T11:31:49.554Z,27.84
2024-05-09T11:33:55.082Z,27.92
2024-05-09T11:35:57.946Z,28.10
2024-05-09T11:38:00.480Z,28.37
2024-05-09T11:40:04.376Z,28.21
2024-05-09T11:42:09.916Z,28.22
2024-05-09T11:44:13.696Z,27.89
2024-05-09T11:46:16.282Z,27.99
2024-05-09T11:48:19.339Z,28.01
2024-05-09T11:50:29.668Z,27.54
2024-05-09T11:52:35.556Z,27.73
2024-05-09T11:54:38.219Z,27.81
2024-05-09T11:56:41.342Z,27.48
2024-05-09T11:58:44.096Z,27.41
2024-05-09T12:00:47.187Z,27.29
2024-05-09T12:02:52.613Z,27.35
2024-05-09T12:04:55.602Z,27.39
2024-05-09T12:06:58.483Z,27.30
2024-05-09T12:09:01.733Z,27.91
2024-05-09T12:11:04.877Z,27.73
2024-05-09T12:13:08.094Z,27.71
2024-05-09T12:15:11.089Z,27.52
2024-05-09T12:17:13.946Z,27.75
2024-05-09T12:19:19.014Z,27.77
2024-05-09T12:21:22.036Z,27.54
2024-05-09T12:23:24.570Z,27.56
2024-05-09T12:25:27.139Z,27.80
2024-05-09T12:27:29.744Z,27.51
2024-05-09T12:29:33.336Z,27.90
2024-05-09T12:31:37.127Z,27.77
2024-05-09T12:33:39.958Z,27.57
2024-05-09T12:35:45.250Z,27.74
2024-05-09T12:37:49.854Z,27.71
2024-05-09T12:39:52.804Z,27.76
2024-05-09T12:41:55.819Z,28.12
2024-05-09T12:43:58.416Z,28.32
2024-05-09T12:46:01.474Z,27.93
2024-05-09T12:48:07.536Z,28.37
2024-05-09T12:50:18.967Z,28.15
2024-05-09T12:52:29.340Z,28.51
2024-05-09T12:54:33.954Z,27.68
2024-05-09T12:56:36.989Z,27.73
2024-05-09T12:58:39.859Z,27.98
2024-05-09T13:00:42.893Z,27.71
2024-05-09T13:02:45.628Z,27.75
2024-05-09T13:04:48.602Z,27.27
2024-05-09T13:06:51.086Z,27.22
2024-05-09T13:08:53.770Z,27.02
2024-05-09T13:10:56.540Z,26.88
2024-05-09T13:13:00.467Z,26.39
2024-05-09T13:15:04.376Z,26.58
2024-05-09T13:17:06.846Z,26.15
2024-05-09T13:19:09.398Z,26.48
2024-05-09T13:21:12.111Z,26.32
2024-05-09T13:23:14.592Z,25.94
2024-05-09T13:25:17.227Z,26.12
2024-05-09T13:27:19.948Z,25.77
2024-05-09T13:29:22.843Z,25.67
2024-05-09T13:31:25.616Z,25.91
2024-05-09T13:33:29.164Z,25.50
2024-05-09T13:35:32.459Z,25.37
2024-05-09T13:37:35.626Z,25.30
2024-05-09T13:39:38.375Z,25.10
2024-05-09T13:41:41.578Z,25.24
2024-05-09T13:43:44.085Z,24.87
2024-05-09T13:45:47.505Z,25.07
2024-05-09T13:47:50.747Z,24.65
2024-05-09T13:49:54.293Z,25.16
2024-05-09T13:51:57.313Z,25.00
2024-05-09T13:54:00.013Z,24.92
2024-05-09T13:56:03.108Z,24.95
2024-05-09T13:58:05.959Z,25.25
2024-05-09T14:00:22.304Z,25.41
2024-05-09T14:02:33.444Z,24.91
2024-05-09T14:04:36.259Z,25.05
2024-05-09T14:06:39.010Z,24.79
2024-05-09T14:08:41.877Z,24.82
2024-05-09T14:10:47.414Z,24.95
2024-05-09T14:12:50.063Z,25.00
2024-05-09T14:14:52.957Z,25.19
2024-05-09T14:16:55.432Z,25.66
2024-05-09T14:18:59.470Z,25.37
2024-05-09T14:21:02.295Z,25.48
2024-05-09T14:23:05.097Z,25.58
2024-05-09T14:25:09.958Z,25.43
2024-05-09T14:27:12.552Z,25.47
2024-05-09T14:29:15.008Z,25.24
2024-05-09T14:31:17.698Z,24.98
2024-05-09T14:33:25.640Z,25.04
2024-05-09T14:35:28.337Z,24.82
2024-05-09T14:37:30.849Z,25.13
2024-05-09T14:39:33.349Z,24.75
2024-05-09T14:41:35.904Z,24.49
2024-05-09T14:43:38.430Z,24.42
2024-05-09T14:45:42.174Z,24.40
2024-05-09T14:47:45.019Z,24.14
2024-05-09T14:49:47.785Z,24.40
2024-05-09T14:51:51.004Z,24.54
2024-05-09T14:53:53.372Z,24.20
2024-05-09T14:55:55.935Z,24.25
2024-05-09T14:57:58.655Z,24.72
2024-05-09T15:00:02.082Z,24.18
2024-05-09T15:02:06.747Z,24.30
2024-05-09T15:04:09.493Z,24.42
2024-05-09T15:06:12.134Z,25.00
2024-05-09T15:08:18.215Z,25.05
2024-05-09T15:10:27.469Z,24.43
2024-05-09T15:12:37.209Z,24.43
2024-05-09T15:14:39.800Z,24.13
2024-05-09T15:16:42.758Z,24.04
2024-05-09T15:18:45.438Z,24.24
2024-05-09T15:20:48.464Z,24.23
2024-05-09T15:22:51.318Z,23.86
2024-05-09T15:24:54.621Z,24.09
2024-05-09T15:26:57.137Z,24.10
2024-05-09T15:28:59.573Z,24.16
2024-05-09T15:31:02.037Z,24.12
2024-05-09T15:33:05.333Z,24.36
2024-05-09T15:35:08.958Z,23.83
2024-05-09T15:37:11.399Z,23.92
2024-05-09T15:39:13.795Z,24.12
2024-05-09T15:41:16.297Z,23.57
2024-05-09T15:43:18.825Z,23.65
2024-05-09T15:45:21.474Z,23.97
2024-05-09T15:47:23.834Z,23.94
2024-05-09T15:49:26.385Z,23.34
2024-05-09T15:51:29.464Z,23.30
2024-05-09T15:53:32.162Z,23.67
2024-05-09T15:55:34.911Z,23.49
2024-05-09T15:57:37.627Z,23.39
2024-05-09T15:59:40.323Z,23.20
2024-05-09T16:01:42.931Z,23.08
2024-05-09T16:03:45.665Z,23.05
2024-05-09T16:05:48.932Z,22.73
2024-05-09T16:07:52.603Z,22.61
2024-05-09T16:09:56.280Z,22.57
2024-05-09T16:11:58.803Z,22.46
2024-05-09T16:14:01.281Z,22.20
2024-05-09T16:16:04.104Z,22.24
2024-05-09T16:18:07.051Z,21.86
2024-05-09T16:20:15.149Z,21.81
2024-05-09T16:22:20.975Z,21.45
2024-05-09T16:24:23.332Z,21.07
2024-05-09T16:26:26.917Z,21.36
2024-05-09T16:28:29.595Z,20.84
2024-05-09T16:30:35.435Z,20.65
2024-05-09T16:32:41.665Z,20.63
2024-05-09T16:34:44.557Z,20.69
2024-05-09T16:36:47.400Z,21.05
2024-05-09T16:38:49.825Z,20.42
2024-05-09T16:40:52.479Z,19.99
2024-05-09T16:42:55.006Z,20.00
2024-05-09T16:44:57.435Z,19.93
2024-05-09T16:46:59.902Z,19.86
2024-05-09T16:49:03.217Z,19.57
2024-05-09T16:51:06.302Z,19.94
2024-05-09T16:53:09.238Z,19.53
2024-05-09T16:55:11.961Z,19.39
2024-05-09T16:57:14.549Z,19.07
2024-05-09T16:59:17.307Z,19.06
2024-05-09T17:01:19.880Z,18.91
2024-05-09T17:03:23.923Z,18.93
2024-05-09T17:05:28.903Z,19.41
2024-05-09T17:07:32.031Z,18.88
2024-05-09T17:09:34.708Z,18.64
2024-05-09T17:11:37.332Z,18.54
2024-05-09T17:13:41.219Z,18.71
2024-05-09T17:15:43.526Z,18.19
2024-05-09T17:17:46.047Z,18.44
2024-05-09T17:19:48.802Z,18.44
2024-05-09T17:21:51.314Z,18.07
2024-05-09T17:23:55.931Z,18.04
2024-05-09T17:26:00.974Z,17.96
2024-05-09T17:28:07.490Z,18.02
2024-05-09T17:32:15.492Z,17.87
2024-05-09T17:34:17.924Z,17.62
2024-05-09T17:36:20.856Z,18.29
2024-05-09T17:38:23.940Z,17.62
2024-05-09T17:40:32.624Z,17.58
2024-05-09T17:42:38.408Z,17.85
2024-05-09T17:44:41.062Z,17.65
2024-05-09T17:46:43.573Z,17.30
2024-05-09T17:48:46.064Z,17.23
2024-05-09T17:50:51.310Z,17.22
2024-05-09T17:52:53.907Z,17.27
2024-05-09T17:54:56.411Z,17.17
2024-05-09T17:56:58.992Z,17.42
2024-05-09T17:59:01.650Z,16.73
2024-05-09T18:01:04.494Z,16.56
2024-05-09T18:03:07.380Z,17.13
2024-05-09T18:05:11.080Z,16.78
2024-05-09T18:07:13.745Z,16.47
2024-05-09T18:09:16.105Z,16.43
2024-05-09T18:11:18.522Z,16.45
2024-05-09T18:13:21.085Z,16.46
2024-05-09T18:15:23.779Z,16.07
2024-05-09T18:17:26.599Z,16.45
2024-05-09T18:19:29.063Z,16.54
2024-05-09T18:21:31.850Z,16.02
2024-05-09T18:23:35.363Z,15.92
2024-05-09T18:25:38.030Z,15.80
2024-05-09T18:27:40.546Z,15.62
2024-05-09T18:29:43.141Z,15.96
2024-05-09T18:31:45.693Z,15.48
2024-05-09T18:33:48.234Z,15.24
2024-05-09T18:35:51.257Z,15.23
2024-05-09T18:37:54.015Z,15.20
2024-05-09T18:39:56.702Z,15.24
2024-05-09T18:42:00.978Z,15.02
2024-05-09T18:44:04.267Z,15.53
2024-05-09T18:46:07.004Z,14.75
2024-05-09T18:48:10.793Z,14.61
2024-05-09T18:50:20.458Z,14.81
2024-05-09T18:52:30.328Z,14.48
2024-05-09T18:54:32.911Z,14.27
2024-05-09T18:56:37.748Z,14.33
2024-05-09T18:58:40.207Z,14.32
2024-05-09T19:00:45.374Z,14.39
2024-05-09T19:02:50.020Z,14.19
2024-05-09T19:04:53.265Z,13.85
2024-05-09T19:06:56.100Z,13.63
2024-05-09T19:08:58.946Z,13.60
2024-05-09T19:11:02.314Z,13.34
2024-05-09T19:13:09.252Z,13.43
2024-05-09T19:15:16.098Z,13.14
2024-05-09T19:17:19.004Z,13.21
2024-05-09T19:19:22.396Z,13.05
2024-05-09T19:21:24.913Z,13.05
2024-05-09T19:23:27.554Z,13.60
2024-05-09T19:25:30.219Z,13.74
2024-05-09T19:27:33.362Z,13.45
2024-05-09T19:29:36.463Z,12.67
2024-05-09T19:31:38.981Z,12.55
2024-05-09T19:33:41.471Z,13.04
2024-05-09T19:35:44.238Z,13.20
2024-05-09T19:37:49.236Z,12.71
2024-05-09T19:39:52.100Z,13.05
2024-05-09T19:41:54.621Z,13.05
2024-05-09T19:43:57.171Z,12.19
2024-05-09T19:45:59.610Z,12.20
2024-05-09T19:48:02.673Z,12.40
2024-05-09T19:50:10.753Z,11.98
2024-05-09T19:52:16.349Z,12.29
2024-05-09T19:54:19.363Z,12.27
2024-05-09T19:56:22.543Z,11.90
2024-05-09T19:58:26.075Z,11.96
2024-05-09T20:00:34.744Z,12.10
2024-05-09T20:02:38.885Z,11.75
2024-05-09T20:04:44.193Z,11.78
2024-05-09T20:06:47.203Z,12.07
2024-05-09T20:08:49.805Z,11.47
2024-05-09T20:10:52.367Z,11.46
2024-05-09T20:12:54.928Z,11.59
2024-05-09T20:14:57.436Z,11.24
2024-05-09T20:16:59.870Z,11.42
2024-05-09T20:19:02.638Z,11.65
2024-05-09T20:21:06.751Z,11.66
2024-05-09T20:23:10.596Z,11.36
2024-05-09T20:25:13.315Z,11.35
2024-05-09T20:27:15.804Z,10.66
2024-05-09T20:29:18.439Z,10.70
2024-05-09T20:31:24.079Z,11.32
2024-05-09T20:33:28.813Z,10.51
2024-05-09T20:35:35.027Z,10.64
2024-05-09T20:37:37.883Z,10.50
2024-05-09T20:39:40.280Z,10.95
2024-05-09T20:41:44.088Z,10.23
2024-05-09T20:43:46.490Z,10.44
2024-05-09T20:45:49.021Z,10.72
2024-05-09T20:47:51.429Z,10.47
2024-05-09T20:49:54.003Z,10.10
2024-05-09T20:51:56.574Z,10.62
2024-05-09T20:53:59.734Z,10.29
2024-05-09T20:56:02.253Z,9.75
2024-05-09T20:58:05.112Z,9.85
2024-05-09T21:00:14.946Z,10.14
2024-05-09T21:02:21.191Z,10.06
2024-05-09T21:04:24.422Z,9.85
2024-05-09T21:06:27.022Z,9.96
2024-05-09T21:08:29.389Z,9.64
2024-05-09T21:10:33.564Z,9.42
2024-05-09T21:12:37.034Z,9.53
2024-05-09T21:14:39.421Z,9.68
2024-05-09T21:16:41.825Z,9.31
2024-05-09T21:18:44.609Z,9.06
2024-05-09T21:20:47.123Z,9.41
2024-05-09T21:22:49.715Z,9.33
2024-05-09T21:24:52.528Z,9.53
2024-05-09T21:26:55.368Z,9.15
2024-05-09T21:28:58.313Z,9.14
2024-05-09T21:31:00.810Z,9.90
2024-05-09T21:33:03.423Z,8.96
2024-05-09T21:35:06.603Z,9.22
2024-05-09T21:37:09.233Z,9.61
2024-05-09T21:39:11.966Z,8.97
2024-05-09T21:41:14.750Z,9.38
2024-05-09T21:43:17.228Z,8.71
2024-05-09T21:45:20.144Z,9.16
2024-05-09T21:47:22.999Z,9.26
2024-05-09T21:49:25.870Z,9.06
2024-05-09T21:51:29.731Z,8.99
2024-05-09T21:53:33.305Z,8.23
2024-05-09T21:55:36.717Z,8.59
2024-05-09T21:57:39.161Z,8.53
2024-05-09T21:59:42.594Z,8.33
2024-05-09T22:01:45.042Z,8.27
2024-05-09T22:03:47.744Z,8.27
2024-05-09T22:05:50.607Z,8.43
2024-05-09T22:07:53.516Z,7.87
2024-05-09T22:09:56.364Z,8.41
2024-05-09T22:11:59.296Z,7.89
2024-05-09T22:14:01.921Z,8.68
2024-05-09T22:16:04.789Z,7.95
2024-05-09T22:18:08.836Z,8.11
2024-05-09T22:20:18.421Z,8.85
2024-05-09T22:22:28.198Z,7.93
2024-05-09T22:24:30.751Z,8.02
2024-05-09T22:26:33.254Z,8.41
2024-05-09T22:28:35.983Z,7.42
2024-05-09T22:30:40.283Z,7.20
2024-05-09T22:32:43.278Z,7.50
2024-05-09T22:34:45.764Z,7.55
2024-05-09T22:36:48.487Z,7.43
2024-05-09T22:38:51.092Z,7.37
2024-05-09T22:40:53.563Z,7.20
2024-05-09T22:42:56.337Z,7.65
2024-05-09T22:44:58.903Z,7.91
2024-05-09T22:47:01.319Z,7.16
2024-05-09T22:49:04.410Z,7.36
2024-05-09T22:51:07.248Z,7.64
2024-05-09T22:53:10.811Z,8.07
2024-05-09T22:55:14.110Z,7.74
2024-05-09T22:57:16.894Z,7.37
2024-05-09T22:59:19.603Z,7.55
2024-05-09T23:01:26.312Z,7.73
2024-05-09T23:03:29.495Z,7.41
2024-05-09T23:05:33.048Z,8.14
2024-05-09T23:07:35.848Z,7.35
2024-05-09T23:09:38.513Z,7.72
2024-05-09T23:11:42.379Z,7.13
2024-05-09T23:13:44.902Z,7.55
2024-05-09T23:15:47.425Z,7.61
2024-05-09T23:17:50.344Z,7.36
2024-05-09T23:19:52.996Z,7.18
2024-05-09T23:21:55.719Z,7.26
2024-05-09T23:23:58.402Z,7.60
2024-05-09T23:26:01.251Z,7.05
2024-05-09T23:28:04.713Z,7.19
2024-05-09T23:30:12.164Z,7.12
2024-05-09T23:32:15.301Z,7.61
2024-05-09T23:34:18.070Z,6.94
2024-05-09T23:36:21.326Z,7.26
2024-05-09T23:38:25.179Z,7.56
2024-05-09T23:40:37.481Z,7.63
2024-05-09T23:42:43.124Z,7.46
2024-05-09T23:44:46.532Z,6.94
2024-05-09T23:46:49.013Z,7.16
2024-05-09T23:48:51.968Z,7.05
2024-05-09T23:50:54.670Z,6.54
2024-05-09T23:52:57.376Z,6.94
2024-05-09T23:54:59.855Z,6.86
2024-05-09T23:57:02.531Z,6.58
2024-05-09T23:59:05.256Z,6.55
